Time;durP1;ratioP1;P1;durP2;ratioP2;P2;SDS_P1;SDS_P2;PMS_P1;PMS_P2;Temp;Humidity;BMP_temperature;BMP_pressure;BME280_temperature;BME280_humidity;BME280_pressure;Samples;Min_cycle;Max_cycle;Signal;HPM_P1;HPM_P2
2022/09/29 00:00:26;;;;;;;2.65;1.98;;;4.90;99.90;;;;;;5034154;28;20056;-77
2022/09/29 00:02:52;;;;;;;4.13;2.20;;;5.10;99.90;;;;;;5034207;28;20100;-77
2022/09/29 00:05:18;;;;;;;2.92;2.33;;;5.10;99.90;;;;;;5034389;28;20041;-77
2022/09/29 00:07:44;;;;;;;3.05;2.28;;;5.00;99.90;;;;;;5034191;28;20029;-77
2022/09/29 00:10:09;;;;;;;3.30;2.00;;;5.00;99.90;;;;;;5034193;28;20022;-77
2022/09/29 00:12:35;;;;;;;5.15;2.63;;;4.90;99.90;;;;;;5034037;28;20063;-77
2022/09/29 00:15:01;;;;;;;5.32;2.65;;;4.90;99.90;;;;;;5033943;28;20057;-77
2022/09/29 00:17:27;;;;;;;4.82;3.17;;;4.90;99.90;;;;;;5045546;28;20352;-77
2022/09/29 00:19:53;;;;;;;5.85;3.75;;;5.00;99.90;;;;;;5053880;28;20036;-77
2022/09/29 00:22:18;;;;;;;5.32;3.38;;;5.00;99.90;;;;;;5054200;28;20024;-77
2022/09/29 00:24:46;;;;;;;5.82;3.95;;;5.00;99.90;;;;;;5053578;28;20032;-77
2022/09/29 00:27:14;;;;;;;5.60;3.30;;;4.90;99.90;;;;;;5053753;28;20025;-77
2022/09/29 00:29:40;;;;;;;4.93;3.47;;;5.00;99.90;;;;;;5053532;28;20070;-77
2022/09/29 04:28:43;;;;;;;4.55;3.03;;;4.00;99.90;;;;;;3686041;23;20067;-72
2022/09/29 04:31:08;;;;;;;3.55;2.92;;;4.10;99.90;;;;;;4918506;29;20036;-72
2022/09/29 04:33:34;;;;;;;8.75;3.28;;;4.10;99.90;;;;;;4905669;29;20036;-72
2022/09/29 04:36:00;;;;;;;12.63;4.15;;;4.10;99.90;;;;;;4900864;29;20021;-72
2022/09/29 04:38:26;;;;;;;10.63;3.65;;;4.20;99.90;;;;;;4883990;29;20075;-72
2022/09/29 04:40:51;;;;;;;9.30;3.60;;;4.20;99.90;;;;;;4901635;29;20148;-72
2022/09/29 04:43:17;;;;;;;5.93;3.10;;;4.30;99.90;;;;;;4899659;29;20024;-72
2022/09/29 04:45:43;;;;;;;4.00;3.08;;;4.20;99.90;;;;;;4899733;29;20043;-72
2022/09/29 04:48:08;;;;;;;9.55;3.65;;;4.20;99.90;;;;;;4902737;29;20081;-72
2022/09/29 04:50:34;;;;;;;12.85;3.88;;;4.10;99.90;;;;;;4915757;29;20670;-71
2022/09/29 04:53:00;;;;;;;7.55;3.65;;;4.20;99.90;;;;;;4904096;29;20036;-73
2022/09/29 04:55:25;;;;;;;10.00;4.03;;;4.20;99.90;;;;;;4900867;29;20049;-73
2022/09/29 04:57:51;;;;;;;5.10;3.85;;;4.20;99.90;;;;;;4898291;29;20052;-72
2022/09/29 05:00:17;;;;;;;7.57;3.90;;;4.30;99.90;;;;;;4894491;29;20028;-73
2022/09/29 05:02:43;;;;;;;8.02;4.20;;;4.20;99.90;;;;;;4903971;29;20036;-73
2022/09/29 05:05:11;;;;;;;9.52;3.88;;;4.20;99.90;;;;;;4900770;29;20032;-73
2022/09/29 05:07:39;;;;;;;12.15;4.45;;;4.20;99.90;;;;;;4901003;29;20706;-72
2022/09/29 05:10:05;;;;;;;9.13;4.43;;;4.20;99.90;;;;;;4909998;29;20043;-74
2022/09/29 05:12:31;;;;;;;27.90;4.88;;;4.20;99.90;;;;;;4909175;29;20017;-73
2022/09/29 05:14:57;;;;;;;16.20;4.28;;;4.20;99.90;;;;;;4911934;29;20101;-73
2022/09/29 05:17:23;;;;;;;9.70;4.35;;;4.20;99.90;;;;;;4919412;29;20024;-73
2022/09/29 05:19:48;;;;;;;11.93;4.68;;;4.20;99.90;;;;;;4901994;29;20063;-72
2022/09/29 05:22:14;;;;;;;17.80;4.70;;;4.20;99.90;;;;;;4912269;29;20032;-74
2022/09/29 05:24:39;;;;;;;23.77;5.20;;;4.30;99.90;;;;;;4901327;29;20084;-73
2022/09/29 05:27:05;;;;;;;10.10;4.40;;;4.40;99.90;;;;;;4900132;29;20484;-73
2022/09/29 05:29:31;;;;;;;22.15;5.43;;;4.40;99.90;;;;;;4918002;29;20395;-73
2022/09/29 05:31:56;;;;;;;10.85;4.55;;;4.30;99.90;;;;;;4919811;29;20048;-73
2022/09/29 05:34:22;;;;;;;21.70;5.15;;;4.30;99.90;;;;;;4920021;29;20032;-73
2022/09/29 05:36:48;;;;;;;22.95;5.57;;;4.40;99.90;;;;;;4905913;29;20032;-72
2022/09/29 05:39:13;;;;;;;22.02;5.47;;;4.40;99.90;;;;;;4912590;29;20047;-71
2022/09/29 05:41:39;;;;;;;33.20;5.90;;;4.40;99.90;;;;;;4904595;29;20396;-72
2022/09/29 05:44:05;;;;;;;20.23;5.82;;;4.50;99.90;;;;;;4909420;29;20082;-74
2022/09/29 05:46:30;;;;;;;19.65;5.13;;;4.60;99.90;;;;;;4919062;29;20032;-72
2022/09/29 05:48:59;;;;;;;34.83;6.50;;;4.50;99.90;;;;;;4911543;29;20028;-71
2022/09/29 05:51:25;;;;;;;15.07;5.32;;;4.50;99.90;;;;;;4913401;29;20036;-71
2022/09/29 05:53:52;;;;;;;7.63;4.88;;;4.70;99.90;;;;;;4911219;29;20025;-71
2022/09/29 05:56:21;;;;;;;19.00;5.88;;;4.80;99.90;;;;;;4879873;29;20029;-71
2022/09/29 05:58:47;;;;;;;17.75;5.75;;;4.90;99.90;;;;;;4909826;29;20016;-72
2022/09/29 06:01:20;;;;;;;8.70;5.85;;;4.90;99.90;;;;;;4915931;29;20032;-72
2022/09/29 06:03:45;;;;;;;10.50;5.90;;;5.00;99.90;;;;;;4915596;29;20099;-72
2022/09/29 06:06:14;;;;;;;9.93;6.35;;;5.10;99.90;;;;;;4915880;29;20061;-72
2022/09/29 06:08:39;;;;;;;11.50;6.75;;;5.10;99.90;;;;;;4915973;29;20027;-71
2022/09/29 06:11:11;;;;;;;111.70;12.13;;;5.30;99.90;;;;;;4915925;29;20032;-71
2022/09/29 06:13:38;;;;;;;27.70;7.82;;;5.50;99.90;;;;;;4918472;29;20076;-71
2022/09/29 06:16:04;;;;;;;23.80;8.05;;;5.70;99.90;;;;;;4920115;29;20415;-71
2022/09/29 06:18:30;;;;;;;22.58;7.95;;;5.80;99.90;;;;;;4920014;29;20669;-71
2022/09/29 06:21:09;;;;;;;34.67;8.75;;;5.80;99.90;;;;;;4919931;29;20047;-71
2022/09/29 06:23:35;;;;;;;27.17;8.13;;;5.90;99.20;;;;;;4928094;29;20035;-71
2022/09/29 06:26:04;;;;;;;24.00;7.85;;;5.90;94.00;;;;;;4935226;29;20262;-71
2022/09/29 06:28:30;;;;;;;48.58;9.57;;;5.80;77.50;;;;;;4933663;29;20046;-71
2022/09/29 06:31:02;;;;;;;18.20;7.47;;;5.90;57.20;;;;;;4921814;29;20052;-72
2022/09/29 06:33:28;;;;;;;13.20;7.70;;;6.10;34.20;;;;;;4918651;29;20029;-72
2022/09/29 06:38:38;;;;;;;11.40;7.72;;;6.50;29.40;;;;;;4918813;29;20486;-71
2022/09/29 06:41:06;;;;;;;10.88;7.22;;;6.80;4.70;;;;;;4932816;29;20020;-72
2022/09/29 06:43:31;;;;;;;12.63;7.95;;;7.10;1.00;;;;;;4938277;29;20039;-71
2022/09/29 06:45:57;;;;;;;13.00;8.15;;;7.50;1.00;;;;;;4938502;29;20024;-71
2022/09/29 06:48:22;;;;;;;122.47;14.05;;;7.90;1.00;;;;;;4938444;29;20055;-71
2022/09/29 06:50:48;;;;;;;20.58;9.98;;;8.30;1.00;;;;;;4922279;29;20400;-72
2022/09/29 06:53:13;;;;;;;17.77;8.88;;;8.60;1.00;;;;;;4919119;29;20051;-72
2022/09/29 06:55:39;;;;;;;49.50;10.95;;;8.70;1.00;;;;;;4919352;29;20021;-73
2022/09/29 06:58:05;;;;;;;31.80;9.52;;;9.00;1.00;;;;;;4920376;29;20035;-71
2022/09/29 07:00:32;;;;;;;36.83;10.45;;;9.40;99.90;;;;;;4916981;29;20047;-71
2022/09/29 07:02:58;;;;;;;37.65;9.15;;;9.80;99.90;;;;;;4918522;29;20028;-72
2022/09/29 07:05:23;;;;;;;20.65;8.60;;;10.40;99.90;;;;;;4918891;29;20096;-72
2022/09/29 07:07:49;;;;;;;14.73;8.55;;;11.50;99.90;;;;;;4919105;29;20158;-72
2022/09/29 07:10:14;;;;;;;80.43;11.32;;;12.30;99.90;;;;;;4918908;29;20036;-72
2022/09/29 07:12:43;;;;;;;59.75;9.38;;;12.40;99.90;;;;;;4919120;29;20036;-71
2022/09/29 07:15:09;;;;;;;15.98;7.15;;;12.90;99.90;;;;;;4919221;29;20032;-72
2022/09/29 07:17:34;;;;;;;14.25;7.45;;;13.90;99.90;;;;;;4918834;29;20031;-72
2022/09/29 07:20:00;;;;;;;16.40;7.40;;;14.70;99.90;;;;;;4926639;29;20020;-72
2022/09/29 07:22:26;;;;;;;72.53;9.77;;;15.80;99.90;;;;;;4937559;29;20028;-72
2022/09/29 07:24:52;;;;;;;7.60;6.65;;;17.10;99.90;;;;;;4937074;29;20024;-72
2022/09/29 07:27:22;;;;;;;12.30;6.93;;;19.20;99.90;;;;;;4920226;29;20028;-72
2022/09/29 07:29:51;;;;;;;12.90;6.55;;;21.20;99.90;;;;;;4919060;29;20412;-73
2022/09/29 07:32:17;;;;;;;52.50;8.65;;;23.80;99.90;;;;;;4920467;29;20087;-71
2022/09/29 07:34:43;;;;;;;7.05;6.35;;;26.00;99.90;;;;;;4919433;29;20108;-72
2022/09/29 07:37:09;;;;;;;6.75;6.07;;;27.60;86.40;;;;;;4918711;29;20084;-72
2022/09/29 07:39:35;;;;;;;7.57;6.25;;;28.40;62.50;;;;;;4930937;29;20515;-73
2022/09/29 07:42:02;;;;;;;6.13;5.63;;;29.30;41.50;;;;;;4918910;29;20111;-72
2022/09/29 07:44:29;;;;;;;8.00;7.05;;;29.90;6.90;;;;;;4919003;29;20091;-72
2022/09/29 07:46:55;;;;;;;7.35;6.60;;;31.10;1.00;;;;;;4914103;29;20028;-73
2022/09/29 07:49:20;;;;;;;11.00;6.75;;;33.50;1.00;;;;;;4919241;29;20035;-73
2022/09/29 07:51:46;;;;;;;6.47;5.88;;;34.90;1.00;;;;;;4918543;29;20376;-73
2022/09/29 07:54:12;;;;;;;20.40;6.20;;;34.90;1.00;;;;;;4919220;29;20064;-73
2022/09/29 07:56:38;;;;;;;7.50;6.10;;;35.60;1.00;;;;;;4919362;29;20024;-73
2022/09/29 07:59:04;;;;;;;7.43;5.85;;;35.80;1.00;;;;;;4925805;29;20059;-73
2022/09/29 08:01:30;;;;;;;6.80;5.88;;;35.70;1.00;;;;;;4929236;29;20032;-73
2022/09/29 08:03:56;;;;;;;7.78;6.00;;;35.80;1.00;;;;;;4920169;29;20364;-74
2022/09/29 08:06:23;;;;;;;7.13;6.13;;;37.10;1.00;;;;;;4920084;29;20503;-73
2022/09/29 08:08:49;;;;;;;16.10;6.40;;;38.20;1.00;;;;;;4917878;29;20045;-73
2022/09/29 08:11:21;;;;;;;30.00;7.50;;;38.30;1.00;;;;;;4907635;29;20052;-73
2022/09/29 08:13:50;;;;;;;23.92;7.10;;;38.50;1.00;;;;;;4919443;29;20039;-73
2022/09/29 08:16:15;;;;;;;7.00;6.40;;;38.40;1.00;;;;;;4920491;29;20110;-73
2022/09/29 08:18:41;;;;;;;8.40;6.40;;;38.50;1.00;;;;;;4921050;29;20083;-73
2022/09/29 08:21:07;;;;;;;7.15;6.25;;;39.40;1.00;;;;;;4921791;29;20032;-73
2022/09/29 08:23:38;;;;;;;9.32;6.50;;;38.60;1.00;;;;;;4921216;29;20140;-73
2022/09/29 08:26:15;;;;;;;9.10;6.18;;;38.30;1.00;;;;;;4920481;29;20038;-74
2022/09/29 08:28:42;;;;;;;7.05;6.00;;;37.40;1.00;;;;;;4906970;29;20031;-73
2022/09/29 08:31:10;;;;;;;28.30;8.43;;;39.00;1.00;;;;;;4906470;29;20056;-73
2022/09/29 08:33:36;;;;;;;9.15;7.30;;;39.10;1.00;;;;;;4919779;29;20081;-73
2022/09/29 08:36:07;;;;;;;12.18;8.38;;;39.80;1.00;;;;;;4909661;29;20052;-73
2022/09/29 08:38:32;;;;;;;13.38;9.48;;;40.30;1.00;;;;;;4900137;29;20020;-73
2022/09/29 08:41:03;;;;;;;9.20;7.45;;;39.70;1.00;;;;;;4903933;29;20016;-73
2022/09/29 08:43:37;;;;;;;8.10;7.13;;;39.60;1.00;;;;;;4918772;29;20035;-73
2022/09/29 08:46:23;;;;;;;11.15;6.82;;;38.90;1.00;;;;;;4918162;29;20032;-74
2022/09/29 08:48:50;;;;;;;9.40;6.57;;;36.40;1.00;;;;;;4918038;29;20565;-73
2022/09/29 08:51:24;;;;;;;7.78;6.97;;;36.70;1.00;;;;;;4918269;29;20139;-73
2022/09/29 08:53:53;;;;;;;6.75;5.85;;;36.50;1.00;;;;;;4907178;29;20539;-73
2022/09/29 08:56:20;;;;;;;6.65;5.90;;;35.90;1.00;;;;;;4916806;29;20032;-73
2022/09/29 08:58:45;;;;;;;5.45;4.43;;;35.10;1.00;;;;;;4915518;29;20032;-73
2022/09/29 09:01:26;;;;;;;5.65;4.68;;;33.80;1.00;;;;;;4917936;29;20072;-73
2022/09/29 09:04:18;;;;;;;5.30;4.80;;;33.90;1.00;;;;;;4917345;29;20035;-74
2022/09/29 09:07:11;;;;;;;5.43;4.65;;;34.50;1.00;;;;;;4933967;29;20047;-73
2022/09/29 09:09:41;;;;;;;5.20;4.70;;;36.10;1.00;;;;;;4933564;29;20019;-73
2022/09/29 09:12:30;;;;;;;6.30;4.45;;;37.30;1.00;;;;;;4924968;29;20062;-73
2022/09/29 09:15:20;;;;;;;5.90;4.73;;;37.70;1.00;;;;;;4876664;29;20044;-73
2022/09/29 09:18:13;;;;;;;4.50;3.65;;;37.40;1.00;;;;;;4900693;29;20051;-73
2022/09/29 09:20:42;;;;;;;5.75;4.13;;;38.30;1.00;;;;;;4900187;29;20087;-73
2022/09/29 09:23:21;;;;;;;5.78;4.68;;;39.20;1.00;;;;;;4898970;29;20423;-73
2022/09/29 09:25:58;;;;;;;6.03;4.45;;;38.60;1.00;;;;;;4907979;29;20032;-73
2022/09/29 09:28:36;;;;;;;4.63;4.20;;;38.00;1.00;;;;;;4916924;29;20028;-73
2022/09/29 09:31:10;;;;;;;6.30;4.68;;;36.20;1.00;;;;;;4916998;29;20048;-73
2022/09/29 09:33:51;;;;;;;5.00;4.07;;;36.30;1.00;;;;;;4916727;29;20162;-73
2022/09/29 09:36:36;;;;;;;4.75;3.88;;;36.40;1.00;;;;;;4909449;29;20040;-73
2022/09/29 09:39:09;;;;;;;4.78;4.03;;;34.70;1.00;;;;;;4900676;29;20103;-73
2022/09/29 09:41:37;;;;;;;3.97;3.58;;;35.70;1.00;;;;;;4910722;29;20063;-73
2022/09/29 09:44:19;;;;;;;5.43;3.22;;;36.40;1.00;;;;;;4914534;29;20063;-73
2022/09/29 09:46:50;;;;;;;6.05;3.78;;;35.20;1.00;;;;;;4914581;29;20054;-72
2022/09/29 09:49:25;;;;;;;4.15;3.33;;;35.90;1.00;;;;;;4897689;29;20029;-73
2022/09/29 09:52:09;;;;;;;3.20;2.55;;;36.80;1.00;;;;;;4897962;29;20025;-72
2022/09/29 09:54:43;;;;;;;3.53;3.22;;;37.00;1.00;;;;;;4897386;29;20697;-73
2022/09/29 09:57:31;;;;;;;4.50;2.97;;;33.30;1.00;;;;;;4897446;29;20084;-72
2022/09/29 10:00:13;;;;;;;3.88;3.00;;;29.20;1.00;;;;;;4897243;29;20040;-72
2022/09/29 10:02:48;;;;;;;4.30;2.80;;;28.10;1.00;;;;;;4897851;29;20032;-73
2022/09/29 10:05:20;;;;;;;4.28;2.83;;;32.50;1.00;;;;;;4897054;29;20115;-72
2022/09/29 10:07:47;;;;;;;3.22;2.40;;;34.60;1.00;;;;;;4910492;29;20040;-72
2022/09/29 10:10:17;;;;;;;2.72;2.38;;;28.90;1.00;;;;;;4918012;29;20024;-74
2022/09/29 10:12:44;;;;;;;2.80;2.28;;;28.30;1.00;;;;;;4936419;29;20086;-75
2022/09/29 10:15:24;;;;;;;4.18;2.60;;;26.20;1.00;;;;;;4935924;29;20038;-76
2022/09/29 10:18:08;;;;;;;3.72;2.75;;;24.90;1.00;;;;;;4920663;29;20083;-72
2022/09/29 10:20:37;;;;;;;3.70;3.00;;;26.70;1.00;;;;;;4927917;29;20059;-72
2022/09/29 10:23:18;;;;;;;4.40;2.97;;;27.10;1.00;;;;;;4934494;29;20036;-72
2022/09/29 10:25:57;;;;;;;5.15;3.15;;;26.00;1.00;;;;;;4934695;29;20050;-72
2022/09/29 10:28:25;;;;;;;3.63;3.03;;;25.50;1.00;;;;;;4914720;29;20060;-72
2022/09/29 10:30:53;;;;;;;6.20;3.50;;;24.00;1.00;;;;;;4912511;29;20056;-72
2022/09/29 10:33:21;;;;;;;4.57;3.30;;;22.70;1.00;;;;;;4914662;29;20017;-71
2022/09/29 10:35:51;;;;;;;4.60;3.28;;;22.20;1.00;;;;;;4915208;29;20032;-72
2022/09/29 10:38:24;;;;;;;3.42;2.72;;;21.10;1.00;;;;;;4915676;29;20046;-71
2022/09/29 10:41:06;;;;;;;2.80;2.28;;;21.10;1.00;;;;;;4915180;29;20063;-72
2022/09/29 10:43:38;;;;;;;3.35;1.42;;;21.00;1.00;;;;;;4915148;29;20028;-71
2022/09/29 10:46:05;;;;;;;1.00;0.80;;;20.60;1.00;;;;;;4915096;29;20111;-71
2022/09/29 10:48:31;;;;;;;2.08;1.30;;;20.70;1.00;;;;;;4897973;29;20028;-72
2022/09/29 10:51:02;;;;;;;2.17;1.70;;;20.60;1.00;;;;;;4914498;29;20035;-72
2022/09/29 10:53:40;;;;;;;1.40;1.27;;;19.90;1.00;;;;;;4914230;29;20464;-72
2022/09/29 10:56:24;;;;;;;1.17;1.08;;;19.50;1.00;;;;;;4912087;29;20110;-72
2022/09/29 10:58:57;;;;;;;1.88;1.13;;;19.50;1.00;;;;;;4917962;29;20036;-72
2022/09/29 11:01:24;;;;;;;2.03;1.10;;;19.40;1.00;;;;;;4918426;29;20032;-71
2022/09/29 11:04:05;;;;;;;2.30;1.10;;;19.40;1.00;;;;;;4918463;29;20055;-72
2022/09/29 11:06:35;;;;;;;1.90;0.80;;;19.40;1.00;;;;;;4918347;29;20099;-72
2022/09/29 11:09:12;;;;;;;1.13;0.85;;;19.30;1.00;;;;;;4918377;29;20036;-73
2022/09/29 11:11:58;;;;;;;0.70;0.70;;;19.20;1.00;;;;;;4918395;29;20111;-72
2022/09/29 11:14:35;;;;;;;1.00;0.90;;;19.00;1.00;;;;;;4918039;29;20475;-72
2022/09/29 11:17:18;;;;;;;1.92;0.90;;;19.10;1.00;;;;;;4918321;29;20036;-72
2022/09/29 11:19:43;;;;;;;1.83;0.90;;;19.50;1.00;;;;;;4918295;29;20024;-72
2022/09/29 11:22:30;;;;;;;1.20;0.90;;;19.50;1.00;;;;;;4918025;29;20055;-71
2022/09/29 11:25:10;;;;;;;1.17;0.75;;;19.50;1.00;;;;;;4918182;29;20427;-72
2022/09/29 11:27:57;;;;;;;2.05;0.90;;;20.00;1.00;;;;;;4918127;29;20102;-73
2022/09/29 11:30:31;;;;;;;0.98;0.60;;;20.10;1.00;;;;;;4917937;29;20127;-73
2022/09/29 11:33:05;;;;;;;1.55;0.70;;;20.10;1.00;;;;;;4918077;29;20492;-73
2022/09/29 11:35:35;;;;;;;1.60;0.98;;;19.50;1.00;;;;;;4918082;29;20376;-72
2022/09/29 11:38:03;;;;;;;;;;;19.10;1.00;;;;;;4918776;29;20035;-72
2022/09/29 11:40:43;;;;;;;1.55;0.77;;;19.10;1.00;;;;;;4918279;29;19907;-73
2022/09/29 11:43:09;;;;;;;;;;;19.00;1.00;;;;;;4917993;29;20180;-73
2022/09/29 11:45:47;;;;;;;0.80;0.77;;;19.10;1.00;;;;;;4917612;29;20005;-73
2022/09/29 11:48:22;;;;;;;1.02;0.60;;;19.60;1.00;;;;;;4917772;29;20035;-73
2022/09/29 11:51:08;;;;;;;1.23;0.65;;;19.30;1.00;;;;;;4917646;29;20111;-72
2022/09/29 11:53:58;;;;;;;1.00;0.70;;;19.60;1.00;;;;;;4913015;29;20038;-74
2022/09/29 11:56:46;;;;;;;0.85;0.50;;;20.00;1.00;;;;;;4905934;29;20044;-73
2022/09/29 11:59:41;;;;;;;0.50;0.50;;;19.80;1.00;;;;;;4897538;29;20036;-73
2022/09/29 12:02:35;;;;;;;1.92;0.45;;;20.10;1.00;;;;;;4916428;29;20032;-73
2022/09/29 12:05:20;;;;;;;0.88;0.50;;;20.20;1.00;;;;;;4917409;29;20032;-74
2022/09/29 12:08:19;;;;;;;1.05;0.40;;;20.20;1.00;;;;;;4917357;29;20036;-73
2022/09/29 12:11:09;;;;;;;0.43;0.40;;;20.80;1.00;;;;;;4916828;29;20036;-74
2022/09/29 12:14:03;;;;;;;1.48;0.40;;;21.30;1.00;;;;;;4917272;29;20048;-73
2022/09/29 12:16:34;;;;;;;0.57;0.57;;;20.60;1.00;;;;;;4917068;29;20060;-73
2022/09/29 12:19:23;;;;;;;1.48;0.60;;;20.40;1.00;;;;;;4917331;29;20033;-73
2022/09/29 12:21:52;;;;;;;0.88;0.60;;;20.70;1.00;;;;;;4917177;29;20020;-73
2022/09/29 12:24:45;;;;;;;1.85;0.50;;;20.40;1.00;;;;;;4917106;29;20032;-73
2022/09/29 12:27:32;;;;;;;0.77;0.40;;;20.20;1.00;;;;;;4898514;29;20408;-74
2022/09/29 12:30:14;;;;;;;0.65;0.32;;;19.80;1.00;;;;;;4899267;29;20622;-73
2022/09/29 12:33:13;;;;;;;1.27;0.43;;;19.40;1.00;;;;;;4917173;29;20380;-73
2022/09/29 12:36:42;;;;;;;0.68;0.30;;;19.40;1.00;;;;;;4917104;29;20020;-73
2022/09/29 12:39:04;;;;;;;0.85;0.30;;;19.60;1.00;;;;;;4916264;29;20115;-73
2022/09/29 12:41:34;;;;;;;0.95;0.30;;;19.40;1.00;;;;;;4916731;29;20032;-73
2022/09/29 12:44:13;;;;;;;0.80;0.30;;;19.70;1.00;;;;;;4917030;29;20032;-74
2022/09/29 12:46:52;;;;;;;1.97;0.30;;;20.00;1.00;;;;;;4916929;29;20138;-73
2022/09/29 12:49:29;;;;;;;0.70;0.43;;;20.10;1.00;;;;;;4916645;29;20043;-75
2022/09/29 12:51:56;;;;;;;2.05;0.40;;;19.60;1.00;;;;;;4916786;29;20036;-73
2022/09/29 12:54:27;;;;;;;0.20;0.20;;;19.40;1.00;;;;;;4916554;29;20717;-73
2022/09/29 12:57:05;;;;;;;0.10;0.10;;;19.30;1.00;;;;;;4916447;29;20032;-73
2022/09/29 12:59:45;;;;;;;1.20;0.20;;;18.80;1.00;;;;;;4905720;29;20508;-73
2022/09/29 13:02:30;;;;;;;;;;;18.30;1.00;;;;;;4916662;29;20717;-74
2022/09/29 13:05:32;;;;;;;0.75;0.20;;;18.10;1.00;;;;;;4916327;29;19915;-74
2022/09/29 13:07:57;;;;;;;0.20;0.10;;;17.90;1.00;;;;;;4857542;29;20033;-73
2022/09/29 13:10:47;;;;;;;0.50;0.20;;;18.00;1.00;;;;;;4904511;29;20483;-74
2022/09/29 13:13:31;;;;;;;0.20;0.10;;;17.70;1.00;;;;;;4916432;29;20115;-73
2022/09/29 13:16:26;;;;;;;1.27;0.10;;;17.90;1.00;;;;;;4916144;29;20657;-73
2022/09/29 13:19:16;;;;;;;0.10;0.10;;;18.40;1.00;;;;;;4897629;29;20021;-73
2022/09/29 13:22:01;;;;;;;0.73;0.10;;;18.40;1.00;;;;;;4896457;29;20127;-73
2022/09/29 13:24:58;;;;;;;1.33;0.40;;;18.20;1.00;;;;;;4912360;29;20039;-73
2022/09/29 13:27:30;;;;;;;1.17;0.20;;;17.90;1.00;;;;;;4865067;29;20087;-73
2022/09/29 13:30:03;;;;;;;0.20;0.20;;;18.10;1.00;;;;;;4921164;29;20171;-73
2022/09/29 13:32:31;;;;;;;1.02;0.15;;;18.30;1.00;;;;;;4932591;29;20032;-73
2022/09/29 13:35:00;;;;;;;0.10;0.10;;;18.50;1.00;;;;;;4935098;29;20341;-73
2022/09/29 13:37:31;;;;;;;0.17;0.10;;;18.60;1.00;;;;;;4935081;29;20020;-74
2022/09/29 13:40:03;;;;;;;0.30;0.10;;;18.70;1.00;;;;;;4925128;29;20043;-73
2022/09/29 13:42:35;;;;;;;1.63;0.10;;;18.70;1.00;;;;;;4915903;29;20028;-74
2022/09/29 13:45:19;;;;;;;0.10;0.10;;;18.60;1.00;;;;;;4904756;29;20072;-73
2022/09/29 13:47:48;;;;;;;0.10;0.10;;;18.20;1.00;;;;;;4880157;29;20063;-73
2022/09/29 13:50:48;;;;;;;1.95;0.10;;;18.10;1.00;;;;;;4898911;29;20056;-74
2022/09/29 13:53:29;;;;;;;0.73;0.30;;;18.00;1.00;;;;;;4916833;29;20630;-73
2022/09/29 13:56:01;;;;;;;0.10;0.10;;;17.70;1.00;;;;;;4912486;29;20024;-73
2022/09/29 13:58:46;;;;;;;0.15;0.10;;;17.60;1.00;;;;;;4896504;29;20033;-74
2022/09/29 14:01:33;;;;;;;0.25;0.10;;;17.80;1.00;;;;;;4896487;29;20027;-73
2022/09/29 14:04:42;;;;;;;1.27;0.20;;;18.10;1.00;;;;;;4912289;29;20031;-73
2022/09/29 14:07:11;;;;;;;1.05;0.10;;;18.10;1.00;;;;;;4908401;29;20036;-73
2022/09/29 14:09:45;;;;;;;1.63;0.10;;;17.70;1.00;;;;;;4915307;29;20060;-73
2022/09/29 14:12:23;;;;;;;0.25;0.10;;;17.30;1.00;;;;;;4915148;29;20084;-73
2022/09/29 14:14:55;;;;;;;0.10;0.10;;;17.10;1.00;;;;;;4915389;29;20061;-74
2022/09/29 14:17:36;;;;;;;1.80;0.10;;;16.90;1.00;;;;;;4915295;29;20020;-73
2022/09/29 14:20:20;;;;;;;0.57;0.10;;;16.80;1.00;;;;;;4915319;29;20033;-74
2022/09/29 14:22:45;;;;;;;2.20;0.20;;;16.70;1.00;;;;;;4915139;29;20020;-73
2022/09/29 14:25:11;;;;;;;0.68;0.20;;;16.70;1.00;;;;;;4915007;29;20039;-74
2022/09/29 14:27:49;;;;;;;0.50;0.10;;;17.00;1.00;;;;;;4914833;29;20044;-73
2022/09/29 14:30:36;;;;;;;0.10;0.10;;;17.10;1.00;;;;;;4896515;29;20390;-73
2022/09/29 14:33:12;;;;;;;0.85;0.22;;;17.30;1.00;;;;;;4910918;29;20070;-73
2022/09/29 14:35:39;;;;;;;0.65;0.10;;;17.10;1.00;;;;;;4919170;29;20021;-73
2022/09/29 14:38:19;;;;;;;0.30;0.20;;;17.40;1.00;;;;;;4918839;29;20035;-74
2022/09/29 14:41:00;;;;;;;;;;;17.30;1.00;;;;;;4922645;29;20086;-73
2022/09/29 14:43:38;;;;;;;0.65;0.20;;;17.30;1.00;;;;;;4919166;29;19907;-73
2022/09/29 14:52:28;;;;;;;1.85;0.52;;;17.30;1.00;;;;;;4909489;29;20155;-73
2022/09/29 14:55:05;;;;;;;0.85;0.30;;;17.20;1.00;;;;;;4918618;29;20040;-73
2022/09/29 14:57:51;;;;;;;0.98;0.30;;;17.50;1.00;;;;;;4912497;29;20024;-73
2022/09/29 15:00:25;;;;;;;1.13;0.35;;;17.60;1.00;;;;;;4918908;29;20020;-73
2022/09/29 15:02:54;;;;;;;0.20;0.20;;;17.60;1.00;;;;;;4918950;29;20032;-73
2022/09/29 15:05:32;;;;;;;0.63;0.13;;;17.60;1.00;;;;;;4918166;29;20031;-74
2022/09/29 15:07:59;;;;;;;0.50;0.20;;;17.40;1.00;;;;;;4918247;29;20036;-74
2022/09/29 15:10:29;;;;;;;0.93;0.30;;;17.30;1.00;;;;;;4918281;29;21114;-74
2022/09/29 15:13:22;;;;;;;4.60;0.30;;;17.20;1.00;;;;;;4918815;29;20034;-74
2022/09/29 15:15:49;;;;;;;0.88;0.30;;;17.10;1.00;;;;;;4918358;29;20071;-73
2022/09/29 15:18:47;;;;;;;1.33;0.30;;;16.90;1.00;;;;;;4918065;29;20114;-73
2022/09/29 15:22:02;;;;;;;0.73;0.20;;;16.80;1.00;;;;;;4907882;29;20043;-72
2022/09/29 15:25:02;;;;;;;0.85;0.22;;;16.50;1.00;;;;;;4912422;29;20525;-73
2022/09/29 15:27:28;;;;;;;0.38;0.30;;;16.30;1.00;;;;;;4883854;29;20415;-73
2022/09/29 15:29:56;;;;;;;1.00;0.40;;;16.00;1.00;;;;;;4917408;29;20056;-73
2022/09/29 15:32:25;;;;;;;1.10;0.28;;;15.80;1.00;;;;;;4918195;29;20039;-73
2022/09/29 15:34:52;;;;;;;0.80;0.40;;;15.70;1.00;;;;;;4917931;29;20032;-73
2022/09/29 15:37:18;;;;;;;0.60;0.22;;;15.70;1.00;;;;;;4917949;29;20511;-73
2022/09/29 15:39:50;;;;;;;0.65;0.30;;;15.50;1.00;;;;;;4918019;29;20107;-73
2022/09/29 15:42:21;;;;;;;0.82;0.30;;;15.30;1.00;;;;;;4900776;29;20391;-73
2022/09/29 15:44:58;;;;;;;1.25;0.40;;;15.20;1.00;;;;;;4916920;29;20527;-73
2022/09/29 15:47:40;;;;;;;1.67;0.30;;;15.20;1.00;;;;;;4917827;29;20099;-74
2022/09/29 15:50:23;;;;;;;0.88;0.20;;;15.10;1.00;;;;;;4917621;29;20031;-74
2022/09/29 15:52:49;;;;;;;0.38;0.38;;;15.20;1.00;;;;;;4917597;29;20496;-74
2022/09/29 15:55:18;;;;;;;0.57;0.30;;;15.20;1.00;;;;;;4906318;29;20035;-74
2022/09/29 15:57:56;;;;;;;1.58;0.30;;;15.20;1.00;;;;;;4917518;29;20063;-74
2022/09/29 16:00:22;;;;;;;0.77;0.30;;;15.20;1.00;;;;;;4917871;29;20541;-73
2022/09/29 16:03:16;;;;;;;0.98;0.30;;;15.30;1.00;;;;;;4917444;29;20496;-73
2022/09/29 16:05:52;;;;;;;1.15;0.20;;;15.30;1.00;;;;;;4912111;29;20087;-73
2022/09/29 16:08:24;;;;;;;0.85;0.22;;;15.40;1.00;;;;;;4901564;29;20052;-73
2022/09/29 16:10:54;;;;;;;0.82;0.22;;;15.50;1.00;;;;;;4898480;29;20027;-74
2022/09/29 16:13:24;;;;;;;0.30;0.30;;;15.50;1.00;;;;;;4915475;29;20116;-73
2022/09/29 16:15:53;;;;;;;0.73;0.57;;;15.40;1.00;;;;;;4917149;29;20025;-74
2022/09/29 16:18:38;;;;;;;1.75;0.43;;;15.30;1.00;;;;;;4917264;29;20036;-73
2022/09/29 16:21:10;;;;;;;1.27;0.40;;;15.20;1.00;;;;;;4917046;29;20040;-74
2022/09/29 16:24:10;;;;;;;1.00;0.68;;;15.10;1.00;;;;;;4917740;29;20036;-73
2022/09/29 16:26:48;;;;;;;1.20;0.93;;;14.90;1.00;;;;;;4911180;29;20020;-73
2022/09/29 16:29:31;;;;;;;1.92;0.60;;;15.00;1.00;;;;;;4913948;29;20072;-74
2022/09/29 16:32:32;;;;;;;1.42;0.50;;;14.90;1.00;;;;;;4915723;29;20084;-74
2022/09/29 16:35:38;;;;;;;0.70;0.52;;;14.80;1.00;;;;;;4916138;29;20040;-74
2022/09/29 16:38:17;;;;;;;3.00;0.60;;;14.80;1.00;;;;;;4914019;29;20032;-72
2022/09/29 16:40:44;;;;;;;1.40;0.68;;;14.60;1.00;;;;;;4915178;29;20067;-72
2022/09/29 16:43:29;;;;;;;2.03;0.60;;;14.50;1.00;;;;;;4916786;29;20029;-71
2022/09/29 16:45:57;;;;;;;1.02;0.60;;;14.50;1.00;;;;;;4916962;29;20383;-72
2022/09/29 16:48:25;;;;;;;0.63;0.63;;;14.20;1.00;;;;;;4919552;29;20035;-72
2022/09/29 16:51:05;;;;;;;1.75;0.80;;;14.30;1.00;;;;;;4935744;29;20032;-72
2022/09/29 16:53:32;;;;;;;2.25;1.58;;;14.10;1.00;;;;;;4935527;29;20023;-72
2022/09/29 16:56:23;;;;;;;2.45;1.10;;;14.00;1.00;;;;;;4935215;29;20036;-71
2022/09/29 16:59:03;;;;;;;3.50;0.98;;;13.90;1.00;;;;;;4935539;29;20435;-72
2022/09/29 17:01:29;;;;;;;1.50;0.65;;;13.90;1.00;;;;;;4922133;29;20056;-72
2022/09/29 17:03:54;;;;;;;3.47;1.20;;;13.80;1.00;;;;;;4916297;29;20067;-72
2022/09/29 17:06:20;;;;;;;1.95;0.82;;;13.70;1.00;;;;;;4916350;29;20688;-72
2022/09/29 17:08:45;;;;;;;1.08;0.98;;;13.70;1.00;;;;;;4916338;29;20035;-72
2022/09/29 17:11:11;;;;;;;2.80;1.10;;;13.60;1.00;;;;;;4907770;29;20098;-72
2022/09/29 17:13:36;;;;;;;1.98;1.20;;;13.50;1.00;;;;;;4916154;29;20396;-73
2022/09/29 17:16:06;;;;;;;1.73;1.48;;;13.50;1.00;;;;;;4914946;29;20165;-72
2022/09/29 17:18:31;;;;;;;2.88;1.60;;;13.40;5.30;;;;;;4916416;29;20060;-72
2022/09/29 17:20:57;;;;;;;1.73;1.40;;;13.30;7.10;;;;;;4915776;29;20032;-72
2022/09/29 17:23:23;;;;;;;1.58;1.30;;;13.30;11.10;;;;;;4919287;29;20019;-72
2022/09/29 17:25:49;;;;;;;3.05;1.38;;;13.20;11.90;;;;;;4921778;29;20032;-72
2022/09/29 17:28:23;;;;;;;3.03;1.55;;;13.10;14.70;;;;;;4926356;29;20020;-72
2022/09/29 17:30:49;;;;;;;2.83;1.55;;;13.10;18.70;;;;;;4915363;29;20044;-72
2022/09/29 17:33:17;;;;;;;4.00;2.55;;;13.00;19.20;;;;;;4914358;29;20028;-72